createdAt,value
2022-10-26T00:01:47.306Z,7.53
2022-10-26T00:04:55.226Z,8.02
2022-10-26T00:08:00.681Z,8.00
2022-10-26T00:11:05.606Z,8.23
2022-10-26T00:14:13.945Z,7.38
2022-10-26T00:17:21.880Z,8.55
2022-10-26T00:20:29.722Z,8.05
2022-10-26T00:23:34.821Z,7.47
2022-10-26T00:26:40.590Z,8.02
2022-10-26T00:29:45.658Z,7.88
2022-10-26T00:32:55.256Z,8.73
2022-10-26T00:36:00.693Z,8.35
2022-10-26T00:39:06.299Z,7.45
2022-10-26T00:42:13.190Z,7.18
2022-10-26T00:45:23.340Z,6.80
2022-10-26T00:48:32.905Z,7.50
2022-10-26T00:51:41.185Z,8.38
2022-10-26T00:54:46.638Z,8.10
2022-10-26T00:57:52.712Z,7.43
2022-10-26T01:00:57.745Z,8.07
2022-10-26T01:04:05.826Z,7.45
2022-10-26T01:07:11.521Z,7.60
2022-10-26T01:10:18.958Z,7.22
2022-10-26T01:13:25.726Z,7.72
2022-10-26T01:16:42.727Z,7.32
2022-10-26T01:20:02.885Z,7.13
2022-10-26T01:23:18.346Z,7.93
2022-10-26T01:26:36.920Z,8.00
2022-10-26T01:29:53.301Z,6.78
2022-10-26T01:33:11.423Z,8.13
2022-10-26T01:36:20.594Z,7.32
2022-10-26T01:39:31.324Z,8.00
2022-10-26T01:42:38.540Z,7.68
2022-10-26T01:45:45.479Z,8.52
2022-10-26T01:48:53.811Z,7.13
2022-10-26T01:52:01.716Z,7.53
2022-10-26T01:55:10.392Z,7.90
2022-10-26T01:58:22.585Z,7.43
2022-10-26T02:01:46.007Z,7.75
2022-10-26T02:05:01.385Z,7.97
2022-10-26T02:08:12.542Z,7.25
2022-10-26T02:11:22.829Z,7.80
2022-10-26T02:14:36.027Z,8.57
2022-10-26T02:17:44.934Z,8.07
2022-10-26T02:20:54.375Z,7.72
2022-10-26T02:24:01.650Z,8.27
2022-10-26T02:27:08.827Z,7.63
2022-10-26T02:30:15.310Z,7.97
2022-10-26T02:33:22.885Z,6.68
2022-10-26T02:36:34.133Z,7.88
2022-10-26T02:39:43.405Z,7.63
2022-10-26T02:42:51.357Z,7.25
2022-10-26T02:46:00.201Z,7.45
2022-10-26T02:49:05.382Z,7.55
2022-10-26T02:52:16.675Z,7.75
2022-10-26T02:55:23.104Z,8.05
2022-10-26T02:58:31.340Z,7.15
2022-10-26T03:01:44.677Z,7.65
2022-10-26T03:04:51.909Z,7.30
2022-10-26T03:07:59.998Z,7.65
2022-10-26T03:11:08.405Z,7.70
2022-10-26T03:14:13.735Z,7.38
2022-10-26T03:17:19.406Z,8.90
2022-10-26T03:20:26.683Z,7.05
2022-10-26T03:23:35.139Z,7.43
2022-10-26T03:26:41.513Z,8.00
2022-10-26T03:29:47.154Z,8.20
2022-10-26T03:32:56.198Z,8.00
2022-10-26T03:36:01.470Z,8.27
2022-10-26T03:39:11.758Z,8.80
2022-10-26T03:42:16.954Z,7.93
2022-10-26T03:45:24.139Z,7.75
2022-10-26T03:48:29.735Z,8.63
2022-10-26T03:51:34.650Z,8.63
2022-10-26T03:54:42.557Z,9.48
2022-10-26T03:57:48.491Z,8.05
2022-10-26T04:00:56.876Z,8.32
2022-10-26T04:04:01.904Z,8.88
2022-10-26T04:07:07.626Z,9.10
2022-10-26T04:10:15.473Z,9.50
2022-10-26T04:13:23.612Z,9.68
2022-10-26T04:16:33.448Z,8.75
2022-10-26T04:19:39.350Z,9.48
2022-10-26T04:22:45.954Z,8.27
2022-10-26T04:25:54.279Z,8.50
2022-10-26T04:29:02.802Z,10.25
2022-10-26T04:32:12.062Z,10.65
2022-10-26T04:35:19.695Z,10.25
2022-10-26T04:38:25.886Z,10.85
2022-10-26T04:41:37.175Z,10.60
2022-10-26T04:44:42.655Z,10.23
2022-10-26T04:47:47.827Z,10.75
2022-10-26T04:50:53.118Z,10.02
2022-10-26T04:53:58.406Z,10.48
2022-10-26T04:57:06.551Z,10.40
2022-10-26T05:00:15.914Z,10.35
2022-10-26T05:03:32.286Z,10.15
2022-10-26T05:06:37.333Z,10.52
2022-10-26T05:09:42.950Z,10.13
2022-10-26T05:12:57.355Z,11.05
2022-10-26T05:19:10.236Z,10.18
2022-10-26T05:22:15.874Z,11.38
2022-10-26T05:25:23.307Z,9.73
2022-10-26T05:28:33.510Z,11.88
2022-10-26T05:31:45.825Z,10.80
2022-10-26T05:34:54.966Z,11.63
2022-10-26T05:38:13.955Z,12.50
2022-10-26T05:41:19.360Z,12.10
2022-10-26T05:44:29.845Z,12.77
2022-10-26T05:47:35.895Z,12.13
2022-10-26T05:50:41.408Z,13.23
2022-10-26T05:53:47.520Z,16.25
2022-10-26T05:56:55.494Z,13.25
2022-10-26T06:00:04.938Z,14.85
2022-10-26T06:03:19.645Z,14.77
2022-10-26T06:06:28.260Z,14.57
2022-10-26T06:09:34.049Z,16.52
2022-10-26T06:12:39.862Z,15.27
2022-10-26T06:15:54.487Z,10.43
2022-10-26T06:19:05.840Z,13.70
2022-10-26T06:22:19.305Z,14.65
2022-10-26T06:25:30.909Z,12.85
2022-10-26T06:28:47.271Z,15.20
2022-10-26T06:32:00.285Z,13.45
2022-10-26T06:35:15.002Z,14.02
2022-10-26T06:38:23.279Z,14.88
2022-10-26T06:41:30.530Z,13.48
2022-10-26T06:44:36.511Z,15.30
2022-10-26T06:47:49.824Z,11.68
2022-10-26T06:50:56.703Z,14.50
2022-10-26T06:54:10.041Z,13.93
2022-10-26T06:57:18.531Z,13.95
2022-10-26T07:00:26.077Z,12.55
2022-10-26T07:03:34.387Z,12.40
2022-10-26T07:06:42.334Z,10.95
2022-10-26T07:09:55.699Z,16.17
2022-10-26T07:13:03.062Z,13.80
2022-10-26T07:16:10.100Z,12.20
2022-10-26T07:19:19.633Z,12.63
2022-10-26T07:22:25.582Z,13.52
2022-10-26T07:25:31.831Z,12.20
2022-10-26T07:28:37.650Z,15.40
2022-10-26T07:31:45.737Z,12.00
2022-10-26T07:34:56.129Z,13.15
2022-10-26T07:38:01.494Z,12.85
2022-10-26T07:41:08.160Z,12.90
2022-10-26T07:44:13.249Z,12.10
2022-10-26T07:47:18.956Z,14.52
2022-10-26T07:50:27.332Z,12.10
2022-10-26T07:53:35.381Z,12.75
2022-10-26T07:56:41.585Z,12.18
2022-10-26T07:59:50.926Z,12.20
2022-10-26T08:02:56.413Z,12.20
2022-10-26T08:06:07.224Z,12.82
2022-10-26T08:09:12.990Z,11.95
2022-10-26T08:12:22.685Z,12.18
2022-10-26T08:15:27.938Z,12.68
2022-10-26T08:18:37.437Z,10.52
2022-10-26T08:21:45.826Z,10.48
2022-10-26T08:24:53.577Z,10.10
2022-10-26T08:27:58.801Z,10.98
2022-10-26T08:31:07.643Z,11.57
2022-10-26T08:34:12.744Z,12.48
2022-10-26T08:37:21.412Z,13.90
2022-10-26T08:40:28.802Z,11.60
2022-10-26T08:43:37.902Z,12.23
2022-10-26T08:46:45.868Z,14.73
2022-10-26T08:49:54.039Z,12.85
2022-10-26T08:53:06.975Z,11.88
2022-10-26T08:56:15.110Z,12.32
2022-10-26T08:59:22.851Z,12.10
2022-10-26T09:02:28.904Z,13.25
2022-10-26T09:05:39.798Z,12.13
2022-10-26T09:08:52.254Z,12.65
2022-10-26T09:12:03.289Z,12.40
2022-10-26T09:15:15.600Z,13.20
2022-10-26T09:18:27.494Z,11.57
2022-10-26T09:24:48.098Z,11.65
2022-10-26T09:27:55.132Z,13.02
2022-10-26T09:31:04.499Z,12.10
2022-10-26T09:34:11.412Z,10.65
2022-10-26T09:37:21.626Z,12.23
2022-10-26T09:40:34.526Z,12.60
2022-10-26T09:46:49.653Z,12.50
2022-10-26T09:49:59.994Z,11.10
2022-10-26T09:53:05.570Z,11.30
2022-10-26T09:56:16.683Z,12.68
2022-10-26T09:59:28.415Z,12.75
2022-10-26T10:02:44.209Z,11.88
2022-10-26T10:05:53.162Z,12.35
2022-10-26T10:09:12.042Z,11.57
2022-10-26T10:12:25.002Z,11.63
2022-10-26T10:15:30.456Z,11.45
2022-10-26T10:18:39.063Z,11.90
2022-10-26T10:21:52.464Z,11.52
2022-10-26T10:24:58.819Z,12.93
2022-10-26T10:28:22.558Z,12.82
2022-10-26T10:31:32.483Z,13.60
2022-10-26T10:34:40.008Z,13.90
2022-10-26T10:37:47.726Z,14.30
2022-10-26T10:40:55.668Z,14.15
2022-10-26T10:44:09.300Z,16.75
2022-10-26T10:47:21.413Z,14.50
2022-10-26T10:53:34.748Z,13.73
2022-10-26T10:56:44.660Z,15.10
2022-10-26T10:59:59.877Z,14.85
2022-10-26T11:03:19.211Z,12.38
2022-10-26T11:06:29.138Z,14.60
2022-10-26T11:09:39.330Z,13.27
2022-10-26T11:12:49.267Z,13.55
2022-10-26T11:16:07.471Z,14.63
2022-10-26T11:19:20.057Z,15.75
2022-10-26T11:22:38.021Z,15.37
2022-10-26T11:25:48.171Z,15.88
2022-10-26T11:28:59.763Z,15.15
2022-10-26T11:32:10.521Z,19.27
2022-10-26T11:35:18.181Z,20.03
2022-10-26T11:38:39.024Z,19.67
2022-10-26T11:41:59.250Z,20.77
2022-10-26T11:45:06.459Z,19.02
2022-10-26T11:48:19.854Z,18.45
2022-10-26T11:51:37.110Z,19.13
2022-10-26T11:54:49.347Z,20.73
2022-10-26T11:57:56.375Z,20.38
2022-10-26T12:01:05.050Z,20.92
2022-10-26T12:04:14.090Z,17.17
2022-10-26T12:07:28.453Z,16.67
2022-10-26T12:10:36.915Z,16.85
2022-10-26T12:13:45.250Z,16.98
2022-10-26T12:16:55.055Z,15.82
2022-10-26T12:20:10.804Z,15.57
2022-10-26T12:23:33.824Z,15.73
2022-10-26T12:26:53.594Z,15.35
2022-10-26T12:30:28.233Z,16.45
2022-10-26T12:33:52.501Z,17.38
2022-10-26T12:37:13.140Z,14.85
2022-10-26T12:40:46.551Z,15.38
2022-10-26T12:44:04.883Z,15.70
2022-10-26T12:47:13.908Z,15.30
2022-10-26T12:50:28.625Z,14.38
2022-10-26T12:53:35.035Z,15.85
2022-10-26T12:56:46.302Z,16.25
2022-10-26T12:59:59.365Z,15.68
2022-10-26T13:03:15.592Z,14.25
2022-10-26T13:06:31.242Z,14.55
2022-10-26T13:09:38.599Z,14.63
2022-10-26T13:12:49.921Z,13.60
2022-10-26T13:16:00.722Z,12.93
2022-10-26T13:19:06.648Z,12.35
2022-10-26T13:22:17.421Z,12.30
2022-10-26T13:25:26.192Z,12.90
2022-10-26T13:28:35.413Z,11.75
2022-10-26T13:31:56.324Z,11.98
2022-10-26T13:35:05.728Z,11.82
2022-10-26T13:38:13.364Z,11.63
2022-10-26T13:41:26.048Z,11.07
2022-10-26T13:44:37.224Z,11.50
2022-10-26T13:47:46.234Z,10.77
2022-10-26T13:54:07.177Z,11.52
2022-10-26T13:57:20.559Z,11.98
2022-10-26T14:00:29.778Z,11.13
2022-10-26T14:03:40.176Z,11.52
2022-10-26T14:06:51.878Z,10.60
2022-10-26T14:09:59.603Z,10.60
2022-10-26T14:13:12.713Z,11.15
2022-10-26T14:16:22.843Z,11.40
2022-10-26T14:19:28.860Z,10.00
2022-10-26T14:22:45.250Z,10.63
2022-10-26T14:25:59.131Z,10.27
2022-10-26T14:29:07.094Z,10.35
2022-10-26T14:32:24.195Z,10.95
2022-10-26T14:35:33.021Z,9.95
2022-10-26T14:38:46.898Z,11.85
2022-10-26T14:41:56.187Z,10.48
2022-10-26T14:45:18.988Z,10.23
2022-10-26T14:48:33.007Z,11.30
2022-10-26T14:51:38.995Z,10.63
2022-10-26T14:55:04.406Z,10.45
2022-10-26T14:58:23.121Z,11.45
2022-10-26T15:01:36.862Z,11.73
2022-10-26T15:04:44.729Z,10.45
2022-10-26T15:07:53.772Z,9.82
2022-10-26T15:11:01.325Z,10.55
2022-10-26T15:14:14.841Z,9.73
2022-10-26T15:17:23.472Z,9.95
2022-10-26T15:20:30.387Z,9.95
2022-10-26T15:30:14.010Z,10.70
2022-10-26T15:33:25.689Z,11.82
2022-10-26T15:36:32.840Z,11.43
2022-10-26T15:39:40.181Z,11.85
2022-10-26T15:42:53.578Z,11.27
2022-10-26T15:46:02.434Z,12.68
2022-10-26T15:49:11.122Z,14.00
2022-10-26T15:52:16.643Z,11.27
2022-10-26T15:55:24.310Z,11.27
2022-10-26T15:58:32.451Z,14.20
2022-10-26T16:01:46.414Z,13.25
2022-10-26T16:04:56.543Z,13.52
2022-10-26T16:08:02.820Z,12.73
2022-10-26T16:11:08.741Z,13.65
2022-10-26T16:14:19.511Z,13.25
2022-10-26T16:17:42.241Z,13.57
2022-10-26T16:20:54.088Z,13.65
2022-10-26T16:24:00.678Z,13.73
2022-10-26T16:27:08.600Z,16.42
2022-10-26T16:30:16.254Z,14.13
2022-10-26T16:33:51.563Z,15.20
2022-10-26T16:37:06.512Z,16.85
2022-10-26T16:40:13.569Z,15.13
2022-10-26T16:43:25.766Z,15.38
2022-10-26T16:46:31.621Z,15.63
2022-10-26T16:49:47.413Z,16.98
2022-10-26T16:52:55.667Z,16.42
2022-10-26T16:56:05.018Z,17.75
2022-10-26T16:59:09.919Z,17.20
2022-10-26T17:02:18.495Z,18.02
2022-10-26T17:05:26.043Z,16.02
2022-10-26T17:08:36.682Z,16.35
2022-10-26T17:11:41.790Z,16.70
2022-10-26T17:14:48.645Z,15.93
2022-10-26T17:17:56.840Z,16.77
2022-10-26T17:21:08.804Z,17.50
2022-10-26T17:24:20.043Z,16.88
2022-10-26T17:27:26.858Z,16.90
2022-10-26T17:30:34.300Z,16.67
2022-10-26T17:33:42.312Z,16.80
2022-10-26T17:36:50.458Z,17.80
2022-10-26T17:40:01.968Z,16.45
2022-10-26T17:43:07.294Z,16.52
2022-10-26T17:46:24.074Z,17.63
2022-10-26T17:49:35.806Z,17.52
2022-10-26T17:52:41.784Z,15.35
2022-10-26T17:55:49.781Z,16.92
2022-10-26T17:58:56.190Z,17.00
2022-10-26T18:02:05.253Z,18.38
2022-10-26T18:05:11.343Z,17.50
2022-10-26T18:08:16.522Z,16.52
2022-10-26T18:11:27.672Z,15.93
2022-10-26T18:14:32.785Z,16.63
2022-10-26T18:17:40.881Z,16.77
2022-10-26T18:20:45.894Z,15.07
2022-10-26T18:23:51.261Z,14.93
2022-10-26T18:26:58.906Z,15.27
2022-10-26T18:30:07.034Z,16.40
2022-10-26T18:33:12.194Z,16.10
2022-10-26T18:36:19.955Z,15.38
2022-10-26T18:39:26.865Z,15.95
2022-10-26T18:45:45.487Z,16.10
2022-10-26T18:48:53.136Z,16.75
2022-10-26T18:51:59.493Z,15.20
2022-10-26T18:55:07.141Z,14.80
2022-10-26T18:58:14.256Z,14.00
2022-10-26T19:01:23.667Z,15.43
2022-10-26T19:04:28.865Z,15.43
2022-10-26T19:07:34.933Z,14.35
2022-10-26T19:10:40.115Z,13.98
2022-10-26T19:13:46.939Z,14.75
2022-10-26T19:16:56.340Z,14.10
2022-10-26T19:20:03.678Z,15.50
2022-10-26T19:23:10.011Z,15.10
2022-10-26T19:26:19.012Z,14.68
2022-10-26T19:29:30.500Z,14.50
2022-10-26T19:32:42.382Z,13.60
2022-10-26T19:35:48.793Z,14.10
2022-10-26T19:38:54.986Z,13.60
2022-10-26T19:42:00.543Z,14.88
2022-10-26T19:45:08.291Z,13.57
2022-10-26T19:48:16.646Z,14.93
2022-10-26T19:51:22.990Z,15.13
2022-10-26T19:54:28.423Z,14.52
2022-10-26T19:57:34.815Z,13.52
2022-10-26T20:00:43.218Z,13.77
2022-10-26T20:03:51.479Z,15.18
2022-10-26T20:06:56.734Z,14.57
2022-10-26T20:10:03.271Z,15.82
2022-10-26T20:13:08.417Z,14.40
2022-10-26T20:16:23.500Z,13.75
2022-10-26T20:19:39.725Z,13.65
2022-10-26T20:22:45.502Z,11.85
2022-10-26T20:25:56.390Z,13.80
2022-10-26T20:29:03.468Z,14.10
2022-10-26T20:32:11.112Z,13.60
2022-10-26T20:35:25.194Z,11.77
2022-10-26T20:38:30.709Z,12.07
2022-10-26T20:41:39.939Z,14.00
2022-10-26T20:44:46.036Z,12.68
2022-10-26T20:47:54.732Z,12.85
2022-10-26T20:51:09.691Z,11.68
2022-10-26T20:54:20.103Z,12.05
2022-10-26T20:57:28.262Z,12.60
2022-10-26T21:00:35.223Z,11.68
2022-10-26T21:03:40.191Z,12.15
2022-10-26T21:06:48.597Z,11.93
2022-10-26T21:09:53.843Z,12.48
2022-10-26T21:12:59.395Z,11.77
2022-10-26T21:16:06.527Z,11.35
2022-10-26T21:19:12.795Z,11.85
2022-10-26T21:22:20.453Z,11.73
2022-10-26T21:25:27.185Z,11.68
2022-10-26T21:28:36.484Z,11.73
2022-10-26T21:31:44.874Z,11.75
2022-10-26T21:34:50.193Z,12.20
2022-10-26T21:37:59.393Z,11.77
2022-10-26T21:41:06.681Z,12.30
2022-10-26T21:44:24.707Z,12.00
2022-10-26T21:47:42.174Z,11.27
2022-10-26T21:50:47.619Z,11.57
2022-10-26T21:53:58.138Z,12.63
2022-10-26T21:57:04.112Z,12.18
2022-10-26T22:00:10.608Z,12.18
2022-10-26T22:03:15.863Z,12.77
2022-10-26T22:06:22.669Z,12.20
2022-10-26T22:09:30.679Z,11.90
2022-10-26T22:12:37.772Z,12.57
2022-10-26T22:15:43.081Z,11.88
2022-10-26T22:18:48.351Z,12.38
2022-10-26T22:21:53.880Z,12.95
2022-10-26T22:25:01.450Z,12.02
2022-10-26T22:28:12.735Z,11.85
2022-10-26T22:31:23.151Z,12.93
2022-10-26T22:34:29.148Z,11.75
2022-10-26T22:37:35.531Z,11.43
2022-10-26T22:40:44.935Z,13.75
2022-10-26T22:43:53.710Z,11.80
2022-10-26T22:47:02.669Z,12.57
2022-10-26T22:50:24.106Z,11.40
2022-10-26T22:53:31.716Z,11.43
2022-10-26T22:56:39.864Z,11.98
2022-10-26T22:59:46.047Z,11.77
2022-10-26T23:02:51.224Z,11.98
2022-10-26T23:06:00.397Z,12.07
2022-10-26T23:09:10.991Z,12.57
2022-10-26T23:12:19.137Z,11.35
2022-10-26T23:16:10.830Z,12.50
2022-10-26T23:19:41.105Z,11.82
2022-10-26T23:22:54.731Z,10.95
2022-10-26T23:26:05.322Z,11.10
2022-10-26T23:29:17.655Z,12.45
2022-10-26T23:32:27.614Z,11.63
2022-10-26T23:35:33.281Z,10.73
2022-10-26T23:38:40.935Z,11.98
2022-10-26T23:41:46.550Z,12.32
2022-10-26T23:44:54.428Z,11.63
2022-10-26T23:48:03.755Z,11.40
2022-10-26T23:51:10.162Z,12.07
2022-10-26T23:54:16.493Z,11.82
2022-10-26T23:57:21.591Z,12.27
